PWSweather.com
Personal Weather Stations
Station Observations
CAPEBRETON
Mira Road, Sydney, NS

Mira RoadSydney, NS

Lat: 46.1207292, Lon: -60.1594642

Elevation: 175

Station Type: LaCrosse Weather Pro Center 2800 Series

http://pwscapebreton.weebly.com/

Latest ConditionsUpdated 4:43:16 AM GMT-04:56 Thursday, Apr 24, 2014
Currently Today's Max Today's Min Today's Average
Temperature 34.0°F1.1°C 37.3°F2.9°C 34.0°F1.1°C 35.0°F1.7°C
Dew Point 30.2°F-1.0°C 34.8°F1.6°C 30.2°F-1.0°C 32.3°F0.2°C
Winds 2.7 mph E4.3 kmh E 7.0 mph ESE11.3 kmh ESE - 3.3 mph 5.3 kmh
Wind Gusts 5.6 mph9.0 kmh 10.5 mph16.9 kmh - -
Humidity 86% 92% 86% 90%
Pressure 29.55 in1000.7 mb 29.58 in1001.7 mb 29.55 in1000.7 mb -
Hour Temp Dew Point Humidity Winds Wind Gusts Pressure Precip Precip Rate Daily Precip Total
04:43 AM 34.0°F1.1°C 30.2°F-1.0°C 86% 2.7 mph E4.3 kmh E 5.6 mph9.0 kmh 29.55 in1000.7 mb 0.00 in0.0 mm 0.00 in/hr0.0 mm/hr 0.00 in0.0 mm
04:38 AM 34.2°F1.2°C 30.3°F-0.9°C 86% 2.9 mph E4.7 kmh E 4.3 mph6.9 kmh 29.56 in1001.0 mb 0.00 in0.0 mm 0.00 in/hr0.0 mm/hr 0.00 in0.0 mm
04:33 AM 34.2°F1.2°C 30.3°F-0.9°C 86% 2.5 mph ENE4.0 kmh ENE 4.9 mph7.9 kmh 29.56 in1001.0 mb 0.00 in0.0 mm 0.00 in/hr0.0 mm/hr 0.00 in0.0 mm
04:28 AM 34.2°F1.2°C 30.3°F-0.9°C 86% 3.6 mph SE5.8 kmh SE 5.6 mph9.0 kmh 29.55 in1000.7 mb 0.00 in0.0 mm 0.00 in/hr0.0 mm/hr 0.00 in0.0 mm
04:23 AM 34.2°F1.2°C 30.3°F-0.9°C 86% 2.6 mph NE4.2 kmh NE 6.0 mph9.7 kmh 29.55 in1000.7 mb 0.00 in0.0 mm 0.00 in/hr0.0 mm/hr 0.00 in0.0 mm
04:18 AM 34.2°F1.2°C 30.6°F-0.8°C 87% 2.6 mph SE4.2 kmh SE 8.3 mph13.4 kmh 29.55 in1000.7 mb 0.00 in0.0 mm 0.00 in/hr0.0 mm/hr 0.00 in0.0 mm
04:13 AM 34.2°F1.2°C 30.6°F-0.8°C 87% 4.7 mph SE7.6 kmh SE 8.3 mph13.4 kmh 29.55 in1000.7 mb 0.00 in0.0 mm 0.00 in/hr0.0 mm/hr 0.00 in0.0 mm
04:08 AM 34.2°F1.2°C 31.0°F-0.6°C 88% 1.9 mph N3.1 kmh N 6.9 mph11.1 kmh 29.55 in1000.7 mb 0.00 in0.0 mm 0.00 in/hr0.0 mm/hr 0.00 in0.0 mm
04:03 AM 34.2°F1.2°C 31.0°F-0.6°C 88% 3.2 mph ENE5.1 kmh ENE 5.1 mph8.2 kmh 29.56 in1001.0 mb 0.00 in0.0 mm 0.00 in/hr0.0 mm/hr 0.00 in0.0 mm
03:57 AM 34.2°F1.2°C 31.0°F-0.6°C 88% 1.5 mph E2.4 kmh E 4.0 mph6.4 kmh 29.56 in1001.0 mb 0.00 in0.0 mm 0.00 in/hr0.0 mm/hr 0.00 in0.0 mm
03:52 AM 34.2°F1.2°C 31.2°F-0.4°C 89% 2.3 mph SSE3.7 kmh SSE 6.7 mph10.8 kmh 29.56 in1001.0 mb 0.00 in0.0 mm 0.00 in/hr0.0 mm/hr 0.00 in0.0 mm
03:47 AM 34.2°F1.2°C 31.2°F-0.4°C 89% 4.6 mph E7.4 kmh E 6.7 mph10.8 kmh 29.56 in1001.0 mb 0.00 in0.0 mm 0.00 in/hr0.0 mm/hr 0.00 in0.0 mm
03:42 AM 34.2°F1.2°C 31.2°F-0.4°C 89% 2.1 mph SE3.4 kmh SE 5.1 mph8.2 kmh 29.56 in1001.0 mb 0.00 in0.0 mm 0.00 in/hr0.0 mm/hr 0.00 in0.0 mm
03:37 AM 34.2°F1.2°C 31.2°F-0.4°C 89% 1.9 mph N3.1 kmh N 6.9 mph11.1 kmh 29.56 in1001.0 mb 0.00 in0.0 mm 0.00 in/hr0.0 mm/hr 0.00 in0.0 mm
03:32 AM 34.2°F1.2°C 31.2°F-0.4°C 89% 4.2 mph E6.8 kmh E 6.9 mph11.1 kmh 29.56 in1001.0 mb 0.00 in0.0 mm 0.00 in/hr0.0 mm/hr 0.00 in0.0 mm
03:27 AM 34.2°F1.2°C 31.2°F-0.4°C 89% 1.4 mph NE2.3 kmh NE 6.9 mph11.1 kmh 29.56 in1001.0 mb 0.00 in0.0 mm 0.00 in/hr0.0 mm/hr 0.00 in0.0 mm
03:22 AM 34.4°F1.3°C 31.7°F-0.2°C 90% 3.1 mph SE5.0 kmh SE 6.9 mph11.1 kmh 29.56 in1001.0 mb 0.00 in0.0 mm 0.00 in/hr0.0 mm/hr 0.00 in0.0 mm
03:17 AM 34.4°F1.3°C 31.7°F-0.2°C 90% 2.4 mph ESE3.9 kmh ESE 5.6 mph9.0 kmh 29.56 in1001.0 mb 0.00 in0.0 mm 0.00 in/hr0.0 mm/hr 0.00 in0.0 mm
03:12 AM 34.4°F1.3°C 31.7°F-0.2°C 90% 3.8 mph E6.1 kmh E 6.5 mph10.5 kmh 29.56 in1001.0 mb 0.00 in0.0 mm 0.00 in/hr0.0 mm/hr 0.00 in0.0 mm
03:07 AM 34.4°F1.3°C 32.0°F0.0°C 91% 4.2 mph SE6.8 kmh SE 7.6 mph12.2 kmh 29.56 in1001.0 mb 0.00 in0.0 mm 0.00 in/hr0.0 mm/hr 0.00 in0.0 mm
03:02 AM 34.4°F1.3°C 32.0°F0.0°C 91% 3.6 mph E5.8 kmh E 7.6 mph12.2 kmh 29.56 in1001.0 mb 0.00 in0.0 mm 0.00 in/hr0.0 mm/hr 0.00 in0.0 mm
02:57 AM 34.4°F1.3°C 32.0°F0.0°C 91% 4.7 mph E7.6 kmh E 9.4 mph15.1 kmh 29.56 in1001.0 mb 0.00 in0.0 mm 0.00 in/hr0.0 mm/hr 0.00 in0.0 mm
02:52 AM 34.4°F1.3°C 32.0°F0.0°C 91% 4.2 mph E6.8 kmh E 9.4 mph15.1 kmh 29.55 in1000.7 mb 0.00 in0.0 mm 0.00 in/hr0.0 mm/hr 0.00 in0.0 mm
02:47 AM 34.6°F1.4°C 32.4°F0.2°C 92% 3.8 mph E6.1 kmh E 6.5 mph10.5 kmh 29.55 in1000.7 mb 0.00 in0.0 mm 0.00 in/hr0.0 mm/hr 0.00 in0.0 mm
02:42 AM 34.4°F1.3°C 32.2°F0.1°C 92% 2.6 mph ENE4.2 kmh ENE 4.7 mph7.6 kmh 29.56 in1001.0 mb 0.00 in0.0 mm 0.00 in/hr0.0 mm/hr 0.00 in0.0 mm
02:37 AM 34.6°F1.4°C 32.4°F0.2°C 92% 2.0 mph E3.2 kmh E 6.7 mph10.8 kmh 29.56 in1001.0 mb 0.00 in0.0 mm 0.00 in/hr0.0 mm/hr 0.00 in0.0 mm
02:32 AM 34.6°F1.4°C 32.4°F0.2°C 92% 4.0 mph ESE6.4 kmh ESE 6.9 mph11.1 kmh 29.57 in1001.4 mb 0.00 in0.0 mm 0.00 in/hr0.0 mm/hr 0.00 in0.0 mm
02:27 AM 34.6°F1.4°C 32.4°F0.2°C 92% 2.2 mph NE3.5 kmh NE 6.9 mph11.1 kmh 29.57 in1001.4 mb 0.00 in0.0 mm 0.00 in/hr0.0 mm/hr 0.00 in0.0 mm
02:22 AM 34.6°F1.4°C 32.4°F0.2°C 92% 3.2 mph SE5.1 kmh SE 6.5 mph10.5 kmh 29.57 in1001.4 mb 0.00 in0.0 mm 0.00 in/hr0.0 mm/hr 0.00 in0.0 mm
02:17 AM 34.6°F1.4°C 32.4°F0.2°C 92% 3.5 mph SE5.6 kmh SE 6.5 mph10.5 kmh 29.57 in1001.4 mb 0.00 in0.0 mm 0.00 in/hr0.0 mm/hr 0.00 in0.0 mm
02:12 AM 34.6°F1.4°C 32.4°F0.2°C 92% 3.8 mph E6.1 kmh E 9.2 mph14.8 kmh 29.57 in1001.4 mb 0.00 in0.0 mm 0.00 in/hr0.0 mm/hr 0.00 in0.0 mm
02:07 AM 34.6°F1.4°C 32.4°F0.2°C 92% 3.9 mph ESE6.3 kmh ESE 9.2 mph14.8 kmh 29.57 in1001.4 mb 0.00 in0.0 mm 0.00 in/hr0.0 mm/hr 0.00 in0.0 mm
02:02 AM 34.7°F1.5°C 32.6°F0.3°C 92% 4.5 mph S7.2 kmh S 6.9 mph11.1 kmh 29.57 in1001.4 mb 0.00 in0.0 mm 0.00 in/hr0.0 mm/hr 0.00 in0.0 mm
01:57 AM 34.9°F1.6°C 32.8°F0.4°C 92% 2.8 mph E4.5 kmh E 9.8 mph15.8 kmh 29.58 in1001.7 mb 0.00 in0.0 mm 0.00 in/hr0.0 mm/hr 0.00 in0.0 mm
01:52 AM 34.9°F1.6°C 32.8°F0.4°C 92% 3.8 mph S6.1 kmh S 9.8 mph15.8 kmh 29.57 in1001.4 mb 0.00 in0.0 mm 0.00 in/hr0.0 mm/hr 0.00 in0.0 mm
01:47 AM 34.9°F1.6°C 32.5°F0.3°C 91% 1.4 mph E2.3 kmh E 5.8 mph9.3 kmh 29.57 in1001.4 mb 0.00 in0.0 mm 0.00 in/hr0.0 mm/hr 0.00 in0.0 mm
01:42 AM 34.9°F1.6°C 32.5°F0.3°C 91% 2.7 mph E4.3 kmh E 8.3 mph13.4 kmh 29.57 in1001.4 mb 0.00 in0.0 mm 0.00 in/hr0.0 mm/hr 0.00 in0.0 mm
01:37 AM 35.1°F1.7°C 32.7°F0.4°C 91% 3.1 mph S5.0 kmh S 8.3 mph13.4 kmh 29.57 in1001.4 mb 0.00 in0.0 mm 0.00 in/hr0.0 mm/hr 0.00 in0.0 mm
01:32 AM 35.1°F1.7°C 32.4°F0.2°C 90% 4.1 mph SE6.6 kmh SE 8.5 mph13.7 kmh 29.57 in1001.4 mb 0.00 in0.0 mm 0.00 in/hr0.0 mm/hr 0.00 in0.0 mm
01:27 AM 35.3°F1.8°C 32.6°F0.3°C 90% 3.0 mph E4.8 kmh E 8.5 mph13.7 kmh 29.58 in1001.7 mb 0.00 in0.0 mm 0.00 in/hr0.0 mm/hr 0.00 in0.0 mm
01:22 AM 35.3°F1.8°C 32.6°F0.3°C 90% 3.7 mph ENE6.0 kmh ENE 7.2 mph11.6 kmh 29.58 in1001.7 mb 0.00 in0.0 mm 0.00 in/hr0.0 mm/hr 0.00 in0.0 mm
01:17 AM 35.5°F1.9°C 32.8°F0.4°C 90% 4.7 mph SE7.6 kmh SE 7.2 mph11.6 kmh 29.58 in1001.7 mb 0.00 in0.0 mm 0.00 in/hr0.0 mm/hr 0.00 in0.0 mm
01:12 AM 35.6°F2.0°C 32.7°F0.4°C 89% 2.8 mph SSE4.5 kmh SSE 6.0 mph9.7 kmh 29.58 in1001.7 mb 0.00 in0.0 mm 0.00 in/hr0.0 mm/hr 0.00 in0.0 mm
01:07 AM 35.8°F2.1°C 32.9°F0.5°C 89% 2.0 mph E3.2 kmh E 6.9 mph11.1 kmh 29.58 in1001.7 mb 0.00 in0.0 mm 0.00 in/hr0.0 mm/hr 0.00 in0.0 mm
01:02 AM 35.8°F2.1°C 32.9°F0.5°C 89% 3.5 mph NE5.6 kmh NE 6.9 mph11.1 kmh 29.58 in1001.7 mb 0.00 in0.0 mm 0.00 in/hr0.0 mm/hr 0.00 in0.0 mm
12:57 AM 36.0°F2.2°C 33.0°F0.6°C 89% 3.1 mph NE5.0 kmh NE 5.8 mph9.3 kmh 29.58 in1001.7 mb 0.00 in0.0 mm 0.00 in/hr0.0 mm/hr 0.00 in0.0 mm
12:52 AM 36.2°F2.3°C 33.5°F0.8°C 90% 2.9 mph SE4.7 kmh SE 5.8 mph9.3 kmh 29.58 in1001.7 mb 0.00 in0.0 mm 0.00 in/hr0.0 mm/hr 0.00 in0.0 mm
12:47 AM 36.4°F2.4°C 33.7°F0.9°C 90% 1.5 mph E2.4 kmh E 8.5 mph13.7 kmh 29.58 in1001.7 mb 0.00 in0.0 mm 0.00 in/hr0.0 mm/hr 0.00 in0.0 mm
12:42 AM 36.4°F2.4°C 33.7°F0.9°C 90% 3.6 mph E5.8 kmh E 8.5 mph13.7 kmh 29.58 in1001.7 mb 0.00 in0.0 mm 0.00 in/hr0.0 mm/hr 0.00 in0.0 mm
12:37 AM 36.4°F2.4°C 33.9°F1.1°C 91% 3.9 mph ESE6.3 kmh ESE 8.5 mph13.7 kmh 29.58 in1001.7 mb 0.00 in0.0 mm 0.00 in/hr0.0 mm/hr 0.00 in0.0 mm
12:32 AM 36.5°F2.5°C 34.4°F1.3°C 92% 3.4 mph ESE5.5 kmh ESE 10.5 mph16.9 kmh 29.58 in1001.7 mb 0.00 in0.0 mm 0.00 in/hr0.0 mm/hr 0.00 in0.0 mm
12:27 AM 36.5°F2.5°C 34.4°F1.3°C 92% 5.9 mph E9.5 kmh E 10.5 mph16.9 kmh 29.58 in1001.7 mb 0.00 in0.0 mm 0.00 in/hr0.0 mm/hr 0.00 in0.0 mm
12:22 AM 36.7°F2.6°C 34.6°F1.4°C 92% 7.0 mph ESE11.3 kmh ESE 10.5 mph16.9 kmh 29.58 in1001.7 mb 0.00 in0.0 mm 0.00 in/hr0.0 mm/hr 0.00 in0.0 mm
12:17 AM 37.1°F2.8°C 34.7°F1.5°C 91% 5.3 mph SE8.5 kmh SE 6.3 mph10.1 kmh 29.58 in1001.7 mb 0.00 in0.0 mm 0.00 in/hr0.0 mm/hr 0.00 in0.0 mm
12:12 AM 37.1°F2.8°C 34.7°F1.5°C 91% 2.9 mph ESE4.7 kmh ESE 6.9 mph11.1 kmh 29.58 in1001.7 mb 0.00 in0.0 mm 0.00 in/hr0.0 mm/hr 0.00 in0.0 mm
12:07 AM 37.3°F2.9°C 34.8°F1.6°C 91% 2.7 mph SE4.3 kmh SE 7.4 mph11.9 kmh 29.58 in1001.7 mb 0.00 in0.0 mm 0.00 in/hr0.0 mm/hr 0.00 in0.0 mm
12:02 AM 37.3°F2.9°C 34.8°F1.6°C 91% 2.2 mph SE3.5 kmh SE 7.4 mph11.9 kmh 29.58 in1001.7 mb 0.00 in0.0 mm 0.00 in/hr0.0 mm/hr 0.00 in0.0 mm